createdAt,value
2023-10-20T00:01:26.817Z,98995.44
2023-10-20T00:04:03.148Z,98973.09
2023-10-20T00:06:31.708Z,98978.09
2023-10-20T00:11:47.880Z,98997.81
2023-10-20T00:14:20.619Z,98991.78
2023-10-20T00:20:05.694Z,98985.13
2023-10-20T00:25:34.390Z,98954.75
2023-10-20T00:28:06.765Z,98975.00
2023-10-20T00:30:42.168Z,98964.72
2023-10-20T00:33:11.783Z,98966.91
2023-10-20T00:35:47.724Z,98960.19
2023-10-20T00:38:18.399Z,98962.81
2023-10-20T00:40:50.726Z,98958.63
2023-10-20T00:43:19.612Z,98972.06
2023-10-20T00:45:49.152Z,98956.41
2023-10-20T00:48:18.128Z,98945.44
2023-10-20T00:50:48.081Z,98933.03
2023-10-20T00:53:19.783Z,98925.63
2023-10-20T00:55:48.445Z,98926.06
2023-10-20T00:58:18.643Z,98934.34
2023-10-20T01:00:51.100Z,98934.91
2023-10-20T01:03:21.598Z,98935.38
2023-10-20T01:05:54.529Z,98922.09
2023-10-20T01:08:26.631Z,98901.75
2023-10-20T01:10:55.823Z,98887.13
2023-10-20T01:13:24.939Z,98887.75
2023-10-20T01:15:53.572Z,98876.16
2023-10-20T01:18:22.354Z,98857.75
2023-10-20T01:20:54.431Z,98857.59
2023-10-20T01:23:22.770Z,98837.25
2023-10-20T01:25:52.994Z,98866.19
2023-10-20T01:28:27.685Z,98864.78
2023-10-20T01:31:01.429Z,98822.31
2023-10-20T01:33:30.301Z,98843.63
2023-10-20T01:36:03.350Z,98837.84
2023-10-20T01:38:32.311Z,98811.50
2023-10-20T01:41:00.917Z,98793.28
2023-10-20T01:43:30.667Z,98789.69
2023-10-20T01:46:00.302Z,98796.34
2023-10-20T01:48:29.075Z,98792.81
2023-10-20T01:50:57.938Z,98799.41
2023-10-20T01:53:27.403Z,98795.91
2023-10-20T01:55:56.480Z,98801.13
2023-10-20T01:58:25.750Z,98780.00
2023-10-20T02:00:57.404Z,98780.00
2023-10-20T02:03:27.698Z,98765.16
2023-10-20T02:05:57.632Z,98751.22
2023-10-20T02:08:27.348Z,98745.38
2023-10-20T02:10:55.751Z,98737.69
2023-10-20T02:13:25.934Z,98715.78
2023-10-20T02:15:54.948Z,98717.03
2023-10-20T02:18:24.945Z,98715.78
2023-10-20T02:21:00.825Z,98716.78
2023-10-20T02:23:33.117Z,98714.50
2023-10-20T02:26:09.912Z,98724.25
2023-10-20T02:28:39.393Z,98711.50
2023-10-20T02:31:16.102Z,98704.19
2023-10-20T02:33:44.741Z,98707.75
2023-10-20T02:36:20.698Z,98691.00
2023-10-20T02:38:54.555Z,98708.75
2023-10-20T02:41:23.169Z,98706.97
2023-10-20T02:43:51.399Z,98704.03
2023-10-20T02:46:21.407Z,98694.28
2023-10-20T02:48:50.165Z,98716.28
2023-10-20T02:51:19.374Z,98711.50
2023-10-20T02:53:48.911Z,98713.09
2023-10-20T02:56:19.394Z,98716.00
2023-10-20T02:58:48.731Z,98697.63
2023-10-20T03:01:19.557Z,98693.72
2023-10-20T03:03:48.390Z,98693.72
2023-10-20T03:06:18.497Z,98669.16
2023-10-20T03:08:47.944Z,98645.72
2023-10-20T03:11:16.690Z,98623.78
2023-10-20T03:13:47.614Z,98615.50
2023-10-20T03:16:16.423Z,98604.59
2023-10-20T03:18:45.014Z,98603.75
2023-10-20T03:21:17.026Z,98594.47
2023-10-20T03:26:31.411Z,98594.47
2023-10-20T03:29:03.833Z,98601.09
2023-10-20T03:31:36.855Z,98593.66
2023-10-20T03:34:07.121Z,98591.78
2023-10-20T03:36:35.911Z,98599.03
2023-10-20T03:39:19.659Z,98602.53
2023-10-20T03:41:53.020Z,98600.72
2023-10-20T03:44:25.654Z,98599.91
2023-10-20T03:47:00.715Z,98607.97
2023-10-20T03:49:37.907Z,98597.59
2023-10-20T03:52:15.354Z,98611.03
2023-10-20T03:54:58.652Z,98628.81
2023-10-20T03:57:29.032Z,98607.09
2023-10-20T03:59:58.709Z,98601.69
2023-10-20T04:02:27.353Z,98599.63
2023-10-20T04:04:57.004Z,98580.63
2023-10-20T04:07:26.889Z,98575.44
2023-10-20T04:09:55.827Z,98562.84
2023-10-20T04:12:25.795Z,98580.44
2023-10-20T04:14:58.159Z,98561.41
2023-10-20T04:17:30.693Z,98539.25
2023-10-20T04:20:00.496Z,98537.22
2023-10-20T04:22:28.864Z,98537.88
2023-10-20T04:24:57.024Z,98537.03
2023-10-20T04:27:45.136Z,98538.09
2023-10-20T04:30:33.874Z,98535.78
2023-10-20T04:33:23.711Z,98522.16
2023-10-20T04:36:11.676Z,98535.81
2023-10-20T04:38:59.940Z,98531.28
2023-10-20T04:41:50.268Z,98521.56
2023-10-20T04:44:24.122Z,98537.09
2023-10-20T04:47:13.513Z,98514.53
2023-10-20T04:49:50.550Z,98503.81
2023-10-20T04:52:21.816Z,98504.84
2023-10-20T04:55:09.504Z,98522.59
2023-10-20T04:57:59.620Z,98513.53
2023-10-20T05:00:28.118Z,98497.78
2023-10-20T05:03:01.549Z,98503.19
2023-10-20T05:05:49.441Z,98489.75
2023-10-20T05:08:20.482Z,98473.00
2023-10-20T05:10:51.304Z,98487.28
2023-10-20T05:13:22.894Z,98501.16
2023-10-20T05:15:52.965Z,98491.00
2023-10-20T05:18:22.332Z,98498.06
2023-10-20T05:20:53.009Z,98498.69
2023-10-20T05:23:22.061Z,98495.41
2023-10-20T05:25:50.799Z,98491.03
2023-10-20T05:28:19.986Z,98477.16
2023-10-20T05:30:50.865Z,98467.25
2023-10-20T05:33:21.065Z,98452.75
2023-10-20T05:35:52.988Z,98452.94
2023-10-20T05:38:22.509Z,98432.69
2023-10-20T05:40:59.980Z,98426.25
2023-10-20T05:43:29.068Z,98432.88
2023-10-20T05:45:57.753Z,98421.69
2023-10-20T05:48:26.550Z,98410.72
2023-10-20T05:51:00.404Z,98412.13
2023-10-20T05:53:29.281Z,98421.88
2023-10-20T05:55:59.585Z,98428.28
2023-10-20T05:58:30.644Z,98412.09
2023-10-20T06:01:13.203Z,98441.91
2023-10-20T06:03:43.198Z,98437.34
2023-10-20T06:06:12.163Z,98448.72
2023-10-20T06:08:41.598Z,98449.13
2023-10-20T06:11:10.774Z,98446.00
2023-10-20T06:14:05.979Z,98454.28
2023-10-20T06:16:35.865Z,98462.09
2023-10-20T06:19:05.127Z,98454.19
2023-10-20T06:21:33.883Z,98458.34
2023-10-20T06:46:25.602Z,98469.94
2023-10-20T06:53:38.082Z,98468.69
2023-10-20T06:56:31.326Z,98462.19
2023-10-20T06:59:00.255Z,98465.22
2023-10-20T07:09:15.889Z,98456.56
2023-10-20T07:11:46.198Z,98456.94
2023-10-20T07:14:15.581Z,98441.09
2023-10-20T07:16:47.278Z,98442.75
2023-10-20T07:19:15.812Z,98430.31
2023-10-20T07:21:44.452Z,98435.88
2023-10-20T07:24:12.965Z,98448.09
2023-10-20T07:26:41.646Z,98463.16
2023-10-20T07:29:11.114Z,98459.50
2023-10-20T07:31:41.457Z,98452.00
2023-10-20T07:34:11.154Z,98438.38
2023-10-20T07:36:39.500Z,98449.97
2023-10-20T07:39:10.260Z,98448.13
2023-10-20T07:41:39.237Z,98445.00
2023-10-20T07:44:07.758Z,98425.00
2023-10-20T07:46:37.139Z,98404.84
2023-10-20T07:49:06.037Z,98401.91
2023-10-20T07:51:34.737Z,98403.34
2023-10-20T07:54:03.318Z,98418.88
2023-10-20T07:56:32.313Z,98418.78
2023-10-20T07:59:00.682Z,98429.28
2023-10-20T08:01:29.573Z,98417.81
2023-10-20T08:03:58.361Z,98417.72
2023-10-20T08:06:28.754Z,98444.00
2023-10-20T08:08:57.214Z,98427.94
2023-10-20T08:11:25.607Z,98401.75
2023-10-20T08:13:55.391Z,98394.53
2023-10-20T08:16:24.333Z,98394.38
2023-10-20T08:18:54.974Z,98398.13
2023-10-20T08:21:27.805Z,98376.84
2023-10-20T08:27:05.244Z,98372.41
2023-10-20T08:29:33.920Z,98397.22
2023-10-20T08:32:03.491Z,98409.13
2023-10-20T08:34:34.542Z,98410.28
2023-10-20T08:37:04.473Z,98404.22
2023-10-20T08:39:33.401Z,98391.66
2023-10-20T08:42:02.143Z,98392.03
2023-10-20T08:44:31.884Z,98376.41
2023-10-20T08:47:01.522Z,98371.13
2023-10-20T08:49:30.401Z,98364.56
2023-10-20T08:51:59.742Z,98354.00
2023-10-20T08:54:28.750Z,98315.91
2023-10-20T08:56:57.174Z,98321.47
2023-10-20T08:59:27.826Z,98329.09
2023-10-20T09:01:57.037Z,98322.50
2023-10-20T09:04:28.824Z,98323.88
2023-10-20T09:06:58.208Z,98346.59
2023-10-20T17:41:17.963Z,98431.44
2023-10-20T17:43:47.669Z,98436.50
2023-10-20T17:46:23.712Z,98436.00
2023-10-20T17:51:39.137Z,98447.59
2023-10-20T17:54:08.611Z,98453.59
2023-10-20T17:56:39.457Z,98465.59
2023-10-20T17:59:15.094Z,98473.50
2023-10-20T18:01:58.229Z,98472.53
2023-10-20T18:04:38.135Z,98471.72
2023-10-20T18:07:09.357Z,98479.03
2023-10-20T18:09:38.619Z,98480.09
2023-10-20T18:12:08.251Z,98484.78
2023-10-20T18:14:37.695Z,98499.63
2023-10-20T18:17:08.084Z,98500.19
2023-10-20T18:19:41.679Z,98516.91
2023-10-20T18:22:10.209Z,98521.94
2023-10-20T18:24:39.670Z,98526.06
2023-10-20T18:27:11.645Z,98537.34
2023-10-20T18:29:41.332Z,98543.53
2023-10-20T18:32:11.833Z,98543.75
2023-10-20T18:34:43.084Z,98568.22
2023-10-20T18:37:16.256Z,98572.19
2023-10-20T18:39:46.345Z,98573.78
2023-10-20T18:42:18.555Z,98575.53
2023-10-20T18:44:49.110Z,98576.22
2023-10-20T18:47:19.325Z,98577.84
2023-10-20T18:49:52.901Z,98579.59
2023-10-20T18:52:25.869Z,98573.56
2023-10-20T19:11:23.846Z,98611.13
2023-10-20T19:16:52.732Z,98617.59
2023-10-20T19:19:23.279Z,98622.03
2023-10-20T19:21:54.473Z,98625.34
2023-10-20T19:27:12.001Z,98625.34
2023-10-20T19:49:24.556Z,98690.94
2023-10-20T19:57:31.740Z,98703.69
2023-10-20T20:00:09.030Z,98700.25
2023-10-20T20:02:46.190Z,98704.94
2023-10-20T20:05:15.633Z,98699.34
2023-10-20T20:08:10.945Z,98697.75
2023-10-20T20:10:39.235Z,98704.84
2023-10-20T20:13:07.437Z,98704.50
2023-10-20T20:15:36.724Z,98704.91
2023-10-20T20:18:06.205Z,98706.38
2023-10-20T20:20:35.323Z,98710.31
2023-10-20T20:23:04.459Z,98710.06
2023-10-20T20:25:34.197Z,98711.13
2023-10-20T20:28:02.918Z,98711.53
2023-10-20T20:30:31.558Z,98705.88
2023-10-20T20:33:00.803Z,98702.38
2023-10-20T20:35:31.913Z,98713.22
2023-10-20T20:38:00.985Z,98720.28
2023-10-20T20:40:29.481Z,98724.84
2023-10-20T20:42:58.886Z,98731.72
2023-10-20T20:45:27.589Z,98731.56
2023-10-20T20:47:56.203Z,98744.88
2023-10-20T20:50:33.294Z,98746.56
2023-10-20T20:53:07.840Z,98763.78
2023-10-20T20:55:39.774Z,98759.44
2023-10-20T20:58:08.926Z,98754.91
2023-10-20T21:00:42.530Z,98756.19
2023-10-20T21:06:02.005Z,98751.50
2023-10-20T21:08:30.560Z,98760.63
2023-10-20T21:11:18.965Z,98763.91
2023-10-20T21:13:54.120Z,98750.97
2023-10-20T21:16:23.815Z,98762.41
2023-10-20T21:19:02.841Z,98755.53
2023-10-20T21:21:31.655Z,98780.06
2023-10-20T21:24:06.972Z,98768.84
2023-10-20T21:26:37.021Z,98778.19
2023-10-20T21:29:06.034Z,98779.03
2023-10-20T21:31:34.703Z,98780.69
2023-10-20T21:34:04.352Z,98779.47
2023-10-20T21:36:43.926Z,98774.06
2023-10-20T21:44:43.723Z,98795.06
2023-10-20T21:47:14.519Z,98789.25
2023-10-20T21:49:46.286Z,98794.44
2023-10-20T21:55:19.047Z,98807.09
2023-10-20T21:57:48.555Z,98810.84
2023-10-20T22:00:19.025Z,98812.06
2023-10-20T22:02:47.814Z,98814.38
2023-10-20T22:05:19.581Z,98821.84
2023-10-20T22:07:50.575Z,98826.41
2023-10-20T22:10:19.306Z,98816.63
2023-10-20T22:12:52.999Z,98807.09
2023-10-20T22:15:22.893Z,98809.16
2023-10-20T22:17:54.450Z,98821.00
2023-10-20T22:20:33.268Z,98812.25
2023-10-20T22:23:02.505Z,98811.06
2023-10-20T22:25:34.899Z,98811.88
2023-10-20T22:30:48.345Z,98816.03
2023-10-20T22:33:22.947Z,98815.63
2023-10-20T22:41:20.796Z,98824.97
2023-10-20T22:46:52.157Z,98818.09
2023-10-20T22:57:53.921Z,98827.03
2023-10-20T23:00:25.051Z,98827.88
2023-10-20T23:03:00.590Z,98835.75
2023-10-20T23:08:45.350Z,98838.47
2023-10-20T23:11:16.222Z,98845.94
2023-10-20T23:16:34.733Z,98850.72
2023-10-20T23:19:05.893Z,98861.06
2023-10-20T23:29:48.143Z,98862.13
2023-10-20T23:32:17.426Z,98861.47
2023-10-20T23:37:29.354Z,98861.50
2023-10-20T23:40:00.408Z,98870.38
2023-10-20T23:42:30.385Z,98886.75
2023-10-20T23:45:07.407Z,98885.13
2023-10-20T23:47:53.466Z,98883.66
2023-10-20T23:56:00.685Z,98909.69
2023-10-20T23:58:30.236Z,98918.63
